Time;durP1;ratioP1;P1;durP2;ratioP2;P2;SDS_P1;SDS_P2;PMS_P1;PMS_P2;Temp;Humidity;BMP_temperature;BMP_pressure;BME280_temperature;BME280_humidity;BME280_pressure;Samples;Min_cycle;Max_cycle;Signal;HPM_P1;HPM_P2
2021/08/04 00:00:34;;;;;;;9.02;5.37;;;25.20;60.50;;;;;;4350370;32;20235;-73
2021/08/04 00:03:01;;;;;;;8.18;5.07;;;25.30;60.90;;;;;;4337946;32;20097;-73
2021/08/04 00:05:27;;;;;;;9.93;5.32;;;25.20;61.80;;;;;;4350378;32;20510;-73
2021/08/04 00:07:53;;;;;;;10.75;5.18;;;25.00;63.30;;;;;;4362776;32;20105;-73
2021/08/04 00:10:20;;;;;;;12.55;5.70;;;24.90;65.00;;;;;;4350395;32;20078;-74
2021/08/04 00:12:46;;;;;;;9.88;5.78;;;24.90;65.90;;;;;;4337990;32;20562;-72
2021/08/04 00:15:14;;;;;;;9.38;5.20;;;24.90;66.20;;;;;;4350122;32;20147;-73
2021/08/04 00:17:40;;;;;;;13.02;6.60;;;24.80;66.70;;;;;;4350567;32;20149;-73
2021/08/04 00:20:08;;;;;;;13.50;5.43;;;24.90;66.90;;;;;;4337949;32;20082;-72
2021/08/04 00:22:35;;;;;;;11.75;5.80;;;24.80;67.80;;;;;;4350188;32;20085;-72
2021/08/04 00:25:01;;;;;;;11.65;6.05;;;24.60;69.00;;;;;;4337981;32;20086;-74
2021/08/04 00:27:28;;;;;;;9.23;4.90;;;24.70;69.10;;;;;;4349945;32;20611;-73
2021/08/04 00:29:55;;;;;;;9.27;4.80;;;24.70;69.70;;;;;;4362573;32;20093;-73
2021/08/04 00:32:21;;;;;;;11.02;5.50;;;24.70;69.50;;;;;;4350122;32;20157;-74
2021/08/04 00:34:48;;;;;;;9.32;4.80;;;24.80;71.60;;;;;;4350003;32;20093;-73
2021/08/04 00:37:14;;;;;;;8.43;5.05;;;24.80;72.50;;;;;;4362908;32;20074;-73
2021/08/04 00:39:41;;;;;;;7.53;4.93;;;24.70;75.10;;;;;;4362305;32;20462;-74
2021/08/04 00:42:09;;;;;;;8.23;5.07;;;24.70;79.50;;;;;;4338013;32;20086;-73
2021/08/04 00:44:36;;;;;;;8.07;5.10;;;24.60;90.40;;;;;;4362137;32;20092;-74
2021/08/04 00:47:04;;;;;;;9.02;5.20;;;24.60;90.20;;;;;;4352276;32;20137;-73
2021/08/04 00:49:30;;;;;;;8.38;5.07;;;24.60;86.20;;;;;;4354104;32;20149;-73
2021/08/04 00:51:57;;;;;;;9.13;5.03;;;24.60;91.40;;;;;;4363328;32;20062;-74
2021/08/04 00:54:23;;;;;;;10.88;4.97;;;24.50;95.60;;;;;;4350378;32;20069;-74
2021/08/04 00:56:49;;;;;;;10.18;5.20;;;24.50;95.70;;;;;;4362374;32;20144;-74
2021/08/04 00:59:15;;;;;;;7.20;4.97;;;24.50;91.00;;;;;;4337672;32;20160;-73
2021/08/04 01:01:55;;;;;;;7.65;4.75;;;24.40;95.40;;;;;;4349672;32;20074;-72
2021/08/04 01:04:23;;;;;;;9.13;5.00;;;24.40;99.90;;;;;;4362900;32;20528;-73
2021/08/04 01:07:24;;;;;;;6.28;4.35;;;24.40;99.90;;;;;;4350329;32;20094;-74
2021/08/04 01:09:56;;;;;;;7.72;4.62;;;24.30;99.90;;;;;;4351485;32;20525;-73
2021/08/04 01:12:30;;;;;;;6.37;4.60;;;24.10;99.90;;;;;;4349948;32;20100;-74
2021/08/04 01:15:02;;;;;;;7.18;4.85;;;24.10;99.90;;;;;;4350560;32;20574;-74
2021/08/04 01:17:29;;;;;;;5.80;4.00;;;24.20;99.90;;;;;;4349941;32;20591;-74
2021/08/04 01:20:15;;;;;;;7.87;4.60;;;24.20;99.90;;;;;;4338940;32;20077;-73
2021/08/04 01:23:00;;;;;;;7.47;4.40;;;24.20;99.90;;;;;;4364932;32;20082;-75
2021/08/04 01:25:36;;;;;;;6.60;4.00;;;24.20;99.90;;;;;;4340443;32;20078;-73
2021/08/04 01:28:31;;;;;;;8.38;4.50;;;24.10;99.90;;;;;;4353223;32;20169;-74
2021/08/04 01:31:16;;;;;;;5.55;4.03;;;24.10;99.90;;;;;;4353617;32;20094;-73
2021/08/04 01:33:47;;;;;;;6.43;3.72;;;24.30;99.90;;;;;;4353581;32;20520;-74
2021/08/04 01:36:14;;;;;;;4.93;3.90;;;24.30;99.90;;;;;;4340209;32;20147;-73
2021/08/04 01:38:41;;;;;;;4.87;3.67;;;24.30;99.90;;;;;;4340007;32;20541;-73
2021/08/04 01:41:08;;;;;;;7.15;4.30;;;24.30;99.90;;;;;;4352193;32;20062;-73
2021/08/04 01:43:35;;;;;;;7.00;4.05;;;24.40;99.90;;;;;;4340265;32;20094;-74
2021/08/04 01:46:01;;;;;;;7.78;3.97;;;24.60;99.90;;;;;;4340954;32;20110;-73
2021/08/04 01:48:27;;;;;;;4.90;3.53;;;24.40;99.90;;;;;;4352754;32;20107;-73
2021/08/04 01:50:56;;;;;;;7.07;3.70;;;24.50;99.90;;;;;;4352271;32;20102;-73
2021/08/04 01:53:23;;;;;;;6.40;3.90;;;24.60;99.90;;;;;;4352584;32;20093;-74
2021/08/04 01:55:50;;;;;;;7.07;4.20;;;24.60;99.90;;;;;;4339956;32;20537;-75
2021/08/04 01:58:16;;;;;;;5.87;4.03;;;24.60;99.90;;;;;;4339972;32;20085;-73
2021/08/04 02:00:43;;;;;;;5.32;3.90;;;24.60;99.90;;;;;;4352129;32;20074;-73
2021/08/04 02:03:09;;;;;;;6.25;3.75;;;24.60;99.90;;;;;;4339994;32;20092;-73
2021/08/04 02:05:35;;;;;;;6.62;3.55;;;24.60;99.90;;;;;;4364705;32;20089;-73
2021/08/04 02:08:54;;;;;;;6.87;3.80;;;24.50;99.90;;;;;;4327638;32;20077;-72
2021/08/04 02:11:39;;;;;;;5.35;3.95;;;24.70;96.80;;;;;;4364192;32;20093;-73
2021/08/04 02:14:22;;;;;;;5.40;3.45;;;24.90;92.00;;;;;;4340967;32;20500;-73
2021/08/04 02:17:13;;;;;;;7.70;3.40;;;25.00;90.50;;;;;;4365840;32;20090;-73
2021/08/04 02:19:50;;;;;;;4.30;3.12;;;24.90;90.80;;;;;;4340484;32;20147;-73
2021/08/04 02:22:24;;;;;;;5.28;3.65;;;24.90;87.50;;;;;;4364459;32;20525;-73
2021/08/04 02:24:56;;;;;;;4.82;3.05;;;25.00;86.70;;;;;;4351560;32;20255;-74
2021/08/04 02:27:22;;;;;;;5.03;3.40;;;25.00;85.20;;;;;;4339976;32;20436;-75
2021/08/04 02:29:49;;;;;;;8.90;3.70;;;25.00;85.00;;;;;;4339857;32;20102;-74
2021/08/04 02:32:15;;;;;;;4.65;3.60;;;24.90;86.30;;;;;;4339770;32;20092;-73
2021/08/04 02:34:42;;;;;;;9.23;3.50;;;24.90;87.10;;;;;;4363827;32;20084;-73
2021/08/04 02:37:08;;;;;;;7.55;3.53;;;24.80;84.50;;;;;;4351561;32;20081;-73
2021/08/04 02:39:34;;;;;;;6.18;3.75;;;25.00;82.00;;;;;;4339102;32;20086;-74
2021/08/04 02:42:00;;;;;;;8.75;4.03;;;24.90;82.50;;;;;;4339359;32;20090;-74
2021/08/04 02:44:27;;;;;;;4.72;3.60;;;25.00;81.10;;;;;;4364411;32;20162;-73
2021/08/04 02:46:54;;;;;;;5.72;3.62;;;25.20;78.70;;;;;;4339046;32;20153;-73
2021/08/04 02:49:20;;;;;;;7.32;3.95;;;25.30;75.70;;;;;;4363996;32;20104;-73
2021/08/04 02:51:47;;;;;;;7.60;3.95;;;25.30;73.90;;;;;;4339100;32;20077;-74
2021/08/04 02:54:13;;;;;;;6.07;3.30;;;25.30;74.40;;;;;;4351061;32;20111;-73
2021/08/04 02:56:39;;;;;;;5.45;3.60;;;25.40;72.50;;;;;;4363478;32;20527;-74
2021/08/04 02:59:06;;;;;;;5.45;3.45;;;25.40;71.20;;;;;;4363520;32;20103;-72
2021/08/04 03:01:32;;;;;;;4.62;3.42;;;25.60;71.80;;;;;;4351164;32;20542;-73
2021/08/04 03:03:58;;;;;;;6.30;3.85;;;25.80;69.00;;;;;;4364227;32;20576;-73
2021/08/04 03:06:24;;;;;;;7.15;3.20;;;25.70;70.30;;;;;;4363709;32;20093;-73
2021/08/04 03:08:51;;;;;;;3.92;3.10;;;25.60;67.30;;;;;;4351136;32;20159;-73
2021/08/04 03:11:17;;;;;;;4.85;3.70;;;25.80;66.50;;;;;;4377461;32;20066;-73
2021/08/04 03:13:43;;;;;;;4.82;3.28;;;26.00;65.90;;;;;;4363371;32;20077;-73
2021/08/04 03:16:09;;;;;;;4.03;3.50;;;25.80;65.60;;;;;;4363414;32;20085;-73
2021/08/04 03:18:35;;;;;;;4.53;3.33;;;25.80;64.10;;;;;;4363505;32;20531;-73
2021/08/04 03:21:01;;;;;;;6.30;3.53;;;25.90;63.40;;;;;;4339623;32;20534;-73
2021/08/04 03:23:28;;;;;;;8.35;3.72;;;26.10;63.00;;;;;;4353323;32;20159;-73
2021/08/04 03:25:54;;;;;;;5.03;3.08;;;26.00;62.20;;;;;;4365103;32;20085;-74
2021/08/04 03:28:20;;;;;;;5.32;3.60;;;26.00;61.20;;;;;;4365075;32;20077;-74
2021/08/04 03:30:46;;;;;;;5.80;3.40;;;26.00;59.60;;;;;;4352482;32;20089;-74
2021/08/04 03:33:13;;;;;;;5.93;3.47;;;26.20;60.00;;;;;;4350998;32;20082;-74
2021/08/04 03:35:39;;;;;;;5.37;3.20;;;26.00;60.40;;;;;;4350967;32;20097;-74
2021/08/04 03:38:05;;;;;;;6.97;3.45;;;25.90;62.30;;;;;;4351645;32;20161;-73
2021/08/04 03:40:32;;;;;;;13.15;4.70;;;26.00;62.30;;;;;;4364231;32;20091;-73
2021/08/04 03:42:58;;;;;;;4.37;3.75;;;26.00;62.50;;;;;;4363463;32;20077;-73
2021/08/04 03:45:26;;;;;;;6.75;4.12;;;26.00;61.40;;;;;;4339147;32;20070;-74
2021/08/04 03:47:53;;;;;;;4.87;3.42;;;26.00;61.00;;;;;;4340343;32;20149;-74
2021/08/04 03:50:19;;;;;;;4.47;3.42;;;26.30;60.10;;;;;;4350938;32;20516;-73
2021/08/04 03:52:45;;;;;;;4.70;3.50;;;26.30;59.60;;;;;;4351124;32;20066;-74
2021/08/04 03:55:12;;;;;;;4.12;3.45;;;26.50;58.90;;;;;;4363204;32;20078;-73
2021/08/04 03:57:39;;;;;;;5.87;3.85;;;26.50;58.30;;;;;;4350525;32;20144;-74
2021/08/04 04:00:06;;;;;;;5.25;4.03;;;26.60;57.70;;;;;;4350259;32;20075;-73
2021/08/04 04:02:32;;;;;;;5.12;3.95;;;26.80;56.70;;;;;;4362983;32;20089;-73
2021/08/04 04:04:59;;;;;;;5.18;3.80;;;26.80;56.40;;;;;;4338003;32;20494;-74
2021/08/04 04:07:25;;;;;;;8.18;4.25;;;26.80;55.50;;;;;;4362777;32;20556;-74
2021/08/04 04:09:51;;;;;;;5.28;3.50;;;26.90;55.30;;;;;;4350504;32;20077;-73
2021/08/04 04:12:17;;;;;;;7.97;4.18;;;27.10;56.00;;;;;;4350373;32;20180;-73
2021/08/04 04:14:43;;;;;;;6.93;4.20;;;27.20;55.80;;;;;;4350530;32;20105;-74
2021/08/04 04:17:09;;;;;;;6.90;3.85;;;27.20;53.10;;;;;;4362896;32;20074;-74
2021/08/04 04:19:36;;;;;;;5.87;3.80;;;27.20;52.80;;;;;;4362850;32;20093;-73
2021/08/04 04:22:02;;;;;;;6.78;3.45;;;27.30;52.10;;;;;;4337903;32;20185;-73
2021/08/04 04:24:28;;;;;;;6.35;3.87;;;27.50;53.70;;;;;;4338196;32;20105;-73
2021/08/04 04:26:54;;;;;;;6.80;3.90;;;27.80;50.80;;;;;;4350454;32;20070;-74
2021/08/04 04:29:20;;;;;;;4.55;3.50;;;28.10;50.00;;;;;;4350272;32;20179;-73
2021/08/04 04:31:47;;;;;;;4.87;3.00;;;28.10;49.60;;;;;;4349971;32;20077;-73
2021/08/04 04:34:13;;;;;;;7.05;3.78;;;28.30;48.60;;;;;;4349995;32;20589;-73
2021/08/04 04:36:39;;;;;;;4.45;3.40;;;28.30;49.20;;;;;;4350306;32;20070;-74
2021/08/04 04:39:05;;;;;;;6.55;4.15;;;28.20;47.90;;;;;;4349839;32;20527;-74
2021/08/04 04:41:31;;;;;;;6.35;3.62;;;28.10;48.40;;;;;;4362510;32;20448;-73
2021/08/04 04:43:57;;;;;;;4.40;3.35;;;28.30;48.70;;;;;;4362496;32;20072;-74
2021/08/04 04:46:23;;;;;;;6.57;3.78;;;28.40;47.40;;;;;;4363084;32;20084;-74
2021/08/04 04:48:50;;;;;;;5.62;3.70;;;29.00;46.90;;;;;;4362032;32;20080;-74
2021/08/04 04:51:16;;;;;;;6.35;4.05;;;29.00;45.20;;;;;;4350271;32;20145;-74
2021/08/04 04:53:42;;;;;;;9.35;4.12;;;29.80;43.10;;;;;;4362199;32;20086;-72
2021/08/04 04:56:08;;;;;;;8.27;3.72;;;30.00;40.80;;;;;;4378812;32;20247;-75
2021/08/04 04:58:34;;;;;;;6.15;4.05;;;29.90;42.60;;;;;;4365239;32;20066;-77
2021/08/04 05:01:01;;;;;;;5.40;3.67;;;30.90;40.50;;;;;;4364975;32;20080;-76
2021/08/04 05:03:27;;;;;;;7.85;4.30;;;31.40;39.10;;;;;;4352831;32;20524;-76
2021/08/04 05:05:53;;;;;;;4.97;4.12;;;31.70;39.30;;;;;;4340226;32;20460;-76
2021/08/04 05:08:19;;;;;;;6.35;3.58;;;30.50;40.60;;;;;;4365192;32;20078;-75
2021/08/04 05:10:45;;;;;;;4.95;3.72;;;31.00;39.70;;;;;;4365077;32;20081;-76
2021/08/04 05:13:12;;;;;;;5.70;3.90;;;31.10;38.70;;;;;;4365200;32;20077;-76
2021/08/04 05:15:38;;;;;;;5.00;3.58;;;31.40;38.50;;;;;;4340371;32;20453;-76
2021/08/04 05:18:04;;;;;;;8.48;3.60;;;31.20;38.30;;;;;;4364925;32;20102;-76
2021/08/04 05:20:31;;;;;;;7.65;3.70;;;31.40;37.30;;;;;;4365310;32;20230;-76
2021/08/04 05:22:57;;;;;;;6.47;3.72;;;30.50;40.30;;;;;;4365652;32;20092;-76
2021/08/04 05:25:25;;;;;;;6.28;3.55;;;29.90;42.10;;;;;;4365079;32;20089;-75
2021/08/04 05:27:51;;;;;;;5.55;3.65;;;29.90;40.30;;;;;;4364835;32;20561;-76
2021/08/04 05:30:17;;;;;;;4.85;3.72;;;31.30;37.80;;;;;;4340076;32;20089;-76
2021/08/04 05:32:44;;;;;;;6.60;3.80;;;32.50;34.60;;;;;;4351898;32;20086;-75
2021/08/04 05:35:10;;;;;;;7.97;3.83;;;32.40;33.60;;;;;;4352619;32;20069;-76
2021/08/04 05:37:36;;;;;;;8.90;3.85;;;32.20;34.30;;;;;;4352397;32;20093;-75
2021/08/04 05:40:04;;;;;;;8.27;4.78;;;32.70;33.00;;;;;;4352178;32;20066;-73
2021/08/04 05:42:30;;;;;;;10.13;4.30;;;32.20;33.00;;;;;;4340077;32;20074;-74
2021/08/04 05:44:57;;;;;;;6.53;3.83;;;31.90;36.50;;;;;;4378545;32;20083;-73
2021/08/04 05:47:23;;;;;;;10.10;4.30;;;31.80;34.10;;;;;;4364599;32;20101;-74
2021/08/04 05:49:49;;;;;;;5.47;3.85;;;31.00;36.50;;;;;;4340341;32;20169;-75
2021/08/04 05:52:15;;;;;;;6.00;3.90;;;30.40;37.70;;;;;;4364662;32;20159;-75
2021/08/04 05:54:42;;;;;;;7.82;4.10;;;29.90;39.60;;;;;;4352013;32;20093;-75
2021/08/04 05:57:08;;;;;;;5.93;4.15;;;30.10;39.40;;;;;;4364311;32;20159;-79
2021/08/04 05:59:34;;;;;;;5.80;3.53;;;30.80;37.40;;;;;;4351976;32;20130;-75
2021/08/04 06:02:03;;;;;;;6.95;3.65;;;31.90;35.20;;;;;;4328374;32;20101;-75
2021/08/04 06:04:29;;;;;;;5.60;3.50;;;33.50;32.20;;;;;;4364096;32;20507;-75
2021/08/04 06:06:55;;;;;;;5.50;4.12;;;34.10;30.10;;;;;;4339699;32;20082;-78
2021/08/04 06:09:22;;;;;;;7.25;4.53;;;33.00;31.60;;;;;;4351743;32;20162;-79
2021/08/04 06:11:48;;;;;;;7.62;4.10;;;33.20;31.00;;;;;;4339674;32;20086;-78
2021/08/04 06:14:14;;;;;;;9.20;4.00;;;32.30;32.30;;;;;;4351384;32;20487;-77
2021/08/04 06:16:40;;;;;;;8.13;4.07;;;33.60;31.20;;;;;;4339536;32;20448;-77
2021/08/04 06:19:06;;;;;;;7.82;4.20;;;34.10;29.70;;;;;;4364228;32;20074;-75
2021/08/04 06:21:33;;;;;;;6.47;4.35;;;31.80;35.00;;;;;;4352062;32;20086;-75
2021/08/04 06:23:59;;;;;;;5.80;3.72;;;31.40;36.60;;;;;;4364243;32;20090;-76
2021/08/04 06:26:25;;;;;;;8.48;4.40;;;31.80;37.50;;;;;;4363859;32;20086;-77
2021/08/04 06:28:51;;;;;;;9.73;4.65;;;31.20;37.50;;;;;;4364140;32;20089;-77
2021/08/04 06:31:17;;;;;;;10.63;4.93;;;30.70;38.50;;;;;;4351583;32;20066;-79
2021/08/04 06:33:44;;;;;;;13.50;5.25;;;30.50;40.30;;;;;;4364104;32;20516;-79
2021/08/04 06:36:10;;;;;;;7.50;4.75;;;30.90;40.10;;;;;;4339653;32;20074;-75
2021/08/04 06:38:36;;;;;;;5.93;4.60;;;30.50;41.20;;;;;;4363859;32;20064;-76
2021/08/04 06:41:02;;;;;;;6.45;4.40;;;30.70;43.40;;;;;;4351599;32;20516;-76
2021/08/04 06:43:28;;;;;;;7.82;4.62;;;30.90;44.40;;;;;;4352213;32;20557;-77
2021/08/04 06:45:55;;;;;;;8.40;4.75;;;30.80;44.40;;;;;;4363713;32;20453;-77
2021/08/04 06:48:21;;;;;;;8.18;4.97;;;30.60;44.00;;;;;;4338987;32;20074;-79
2021/08/04 06:50:47;;;;;;;9.32;5.12;;;30.50;43.90;;;;;;4351490;32;20089;-78
2021/08/04 06:53:13;;;;;;;8.70;4.95;;;31.20;42.50;;;;;;4351587;32;20161;-78
2021/08/04 06:55:40;;;;;;;9.23;5.50;;;31.50;40.90;;;;;;4363382;32;20141;-78
2021/08/04 06:58:06;;;;;;;8.80;5.62;;;31.10;42.10;;;;;;4350984;32;20076;-78
2021/08/04 07:00:32;;;;;;;7.90;4.65;;;31.20;42.20;;;;;;4351500;32;20074;-76
2021/08/04 07:02:58;;;;;;;8.32;4.90;;;29.90;45.70;;;;;;4351762;32;20150;-76
2021/08/04 07:05:24;;;;;;;8.55;4.12;;;29.90;46.40;;;;;;4363811;32;20066;-76
2021/08/04 07:07:51;;;;;;;7.62;4.40;;;30.70;44.90;;;;;;4351348;32;20088;-76
2021/08/04 07:10:17;;;;;;;12.05;5.07;;;30.90;44.70;;;;;;4363216;32;20073;-79
2021/08/04 07:12:43;;;;;;;6.70;4.47;;;30.20;45.50;;;;;;4363000;32;20171;-78
2021/08/04 07:15:10;;;;;;;8.60;4.90;;;29.90;46.40;;;;;;4350986;32;20073;-76
2021/08/04 07:17:47;;;;;;;6.35;4.20;;;29.40;48.00;;;;;;4350849;32;20065;-77
2021/08/04 07:20:18;;;;;;;6.72;4.05;;;30.20;46.30;;;;;;4350967;32;20074;-73
2021/08/04 07:22:44;;;;;;;8.65;3.92;;;31.20;42.80;;;;;;4332415;32;20177;-74
2021/08/04 07:25:11;;;;;;;7.75;4.22;;;31.40;41.30;;;;;;4334772;32;20063;-79
2021/08/04 07:27:37;;;;;;;7.85;4.40;;;31.30;42.00;;;;;;4354095;32;20476;-77
2021/08/04 07:30:08;;;;;;;9.82;4.50;;;31.60;40.70;;;;;;4336269;32;20098;-77
2021/08/04 07:32:35;;;;;;;6.90;4.12;;;31.40;39.80;;;;;;4340109;32;20102;-74
2021/08/04 07:35:01;;;;;;;6.62;4.32;;;31.80;38.00;;;;;;4361282;32;20090;-75
2021/08/04 07:37:31;;;;;;;8.43;4.47;;;31.80;37.80;;;;;;4364160;32;20074;-75
2021/08/04 07:39:57;;;;;;;10.77;4.32;;;31.10;40.00;;;;;;4358226;32;20059;-73
2021/08/04 07:42:25;;;;;;;8.30;4.45;;;31.10;41.10;;;;;;4343499;32;20118;-72
2021/08/04 07:44:52;;;;;;;8.13;4.43;;;31.30;39.00;;;;;;4334306;32;20139;-69
2021/08/04 07:47:18;;;;;;;8.30;4.70;;;31.30;39.30;;;;;;4343620;32;20076;-72
2021/08/04 07:49:45;;;;;;;8.80;4.80;;;31.40;38.40;;;;;;4331530;32;20086;-73
2021/08/04 07:52:11;;;;;;;9.45;4.60;;;30.90;40.50;;;;;;4339985;32;20121;-74
2021/08/04 07:54:39;;;;;;;8.88;4.55;;;30.90;41.20;;;;;;4355726;32;20098;-71
2021/08/04 07:57:06;;;;;;;8.18;4.70;;;31.00;41.00;;;;;;4344080;32;20074;-70
2021/08/04 07:59:32;;;;;;;7.43;4.60;;;30.80;40.90;;;;;;4336893;32;20476;-73
2021/08/04 08:01:58;;;;;;;6.28;4.32;;;31.00;42.20;;;;;;4348475;32;20082;-72
2021/08/04 08:04:24;;;;;;;10.48;4.07;;;32.00;40.10;;;;;;4363197;32;20151;-71
2021/08/04 08:06:50;;;;;;;6.00;4.28;;;31.80;39.40;;;;;;4335615;32;20069;-72
2021/08/04 08:09:21;;;;;;;7.62;4.15;;;32.10;39.90;;;;;;4357621;32;20575;-73
2021/08/04 08:11:58;;;;;;;6.47;3.67;;;31.50;39.90;;;;;;4339309;32;20446;-72
2021/08/04 08:14:25;;;;;;;9.60;4.25;;;31.70;40.20;;;;;;4336871;32;20078;-71
2021/08/04 08:16:51;;;;;;;5.90;4.00;;;32.00;39.20;;;;;;4336577;32;20159;-71
2021/08/04 08:19:18;;;;;;;8.10;4.68;;;32.00;38.40;;;;;;4343912;32;20059;-73
2021/08/04 08:21:44;;;;;;;6.50;4.30;;;31.50;39.90;;;;;;4346780;32;20078;-73
2021/08/04 08:24:10;;;;;;;8.40;4.40;;;31.50;40.00;;;;;;4350137;32;20202;-74
2021/08/04 08:26:37;;;;;;;8.82;4.50;;;31.70;39.60;;;;;;4329022;32;20540;-73
2021/08/04 08:29:04;;;;;;;5.97;4.25;;;31.70;39.60;;;;;;4342164;32;20085;-74
2021/08/04 08:31:31;;;;;;;8.05;4.87;;;31.40;39.30;;;;;;4349909;32;20151;-75
2021/08/04 08:34:00;;;;;;;7.57;4.20;;;31.20;38.20;;;;;;4330339;32;20501;-77
2021/08/04 08:36:37;;;;;;;6.90;3.90;;;31.20;36.30;;;;;;4347308;32;20104;-75
2021/08/04 08:39:05;;;;;;;7.07;4.75;;;32.00;35.60;;;;;;4337073;32;20059;-75
2021/08/04 08:41:32;;;;;;;7.20;3.85;;;31.60;35.10;;;;;;4337778;32;20151;-76
2021/08/04 08:43:58;;;;;;;8.07;3.97;;;31.90;35.40;;;;;;4342774;32;20145;-77
2021/08/04 08:46:30;;;;;;;6.25;3.62;;;32.00;35.00;;;;;;4339195;32;20081;-72
2021/08/04 08:48:57;;;;;;;9.77;4.70;;;31.40;39.10;;;;;;4357208;32;20070;-72
2021/08/04 08:51:23;;;;;;;8.70;4.75;;;31.20;42.40;;;;;;4351063;32;20102;-73
2021/08/04 08:53:50;;;;;;;6.87;4.20;;;30.30;45.60;;;;;;4334523;32;20152;-78
2021/08/04 08:56:18;;;;;;;8.57;4.57;;;30.00;48.40;;;;;;4330893;32;20105;-73
2021/08/04 08:58:49;;;;;;;6.00;4.20;;;29.80;48.50;;;;;;4334669;32;20070;-74
2021/08/04 09:01:16;;;;;;;7.00;4.53;;;29.30;49.70;;;;;;4331542;32;20503;-75
2021/08/04 09:03:42;;;;;;;8.98;5.15;;;29.30;50.60;;;;;;4347129;32;20497;-75
2021/08/04 09:06:09;;;;;;;7.47;4.30;;;29.40;49.90;;;;;;4331516;32;20231;-75
2021/08/04 09:08:37;;;;;;;8.77;4.32;;;29.30;50.30;;;;;;4333531;32;20101;-74
2021/08/04 09:11:16;;;;;;;6.90;4.05;;;29.00;51.20;;;;;;4323031;32;20116;-73
2021/08/04 09:13:45;;;;;;;1.87;1.77;;;28.70;54.10;;;;;;4328711;32;20081;-73
2021/08/04 09:16:18;;;;;;;5.53;3.58;;;28.50;55.90;;;;;;4358493;32;20069;-78
2021/08/04 09:18:52;;;;;;;12.25;6.05;;;28.80;56.00;;;;;;4330778;32;20516;-74
2021/08/04 09:21:19;;;;;;;5.85;4.78;;;28.40;59.60;;;;;;4338987;32;20066;-75
2021/08/04 09:23:54;;;;;;;7.03;4.80;;;28.50;60.20;;;;;;4347825;32;20490;-80
2021/08/04 09:26:22;;;;;;;11.70;6.30;;;28.50;59.20;;;;;;4339014;32;20062;-77
2021/08/04 09:29:09;;;;;;;9.45;5.20;;;28.50;59.50;;;;;;4345261;32;20070;-79
2021/08/04 09:31:43;;;;;;;7.15;5.18;;;28.50;60.50;;;;;;4329837;32;20149;-71
2021/08/04 09:34:38;;;;;;;7.65;4.53;;;28.40;61.00;;;;;;4346796;32;20062;-73
2021/08/04 09:37:07;;;;;;;10.88;6.18;;;28.60;60.30;;;;;;4331320;32;20074;-72
2021/08/04 09:39:37;;;;;;;7.90;4.82;;;28.40;59.90;;;;;;4335606;32;20093;-72
2021/08/04 09:42:04;;;;;;;9.43;4.47;;;28.90;60.00;;;;;;4342643;32;20071;-74
2021/08/04 09:44:30;;;;;;;13.15;5.20;;;29.20;58.60;;;;;;4356836;32;20079;-71
2021/08/04 09:47:10;;;;;;;7.22;5.10;;;28.80;59.50;;;;;;4332651;32;20061;-74
2021/08/04 09:49:38;;;;;;;9.40;5.78;;;28.90;59.40;;;;;;4343378;32;20073;-75
2021/08/04 09:52:11;;;;;;;9.82;5.75;;;28.50;61.30;;;;;;4344178;32;20232;-75
2021/08/04 09:54:42;;;;;;;10.18;5.55;;;28.80;59.50;;;;;;4338656;32;20070;-75
2021/08/04 09:57:09;;;;;;;5.80;4.93;;;28.60;59.70;;;;;;4342139;32;20086;-73
2021/08/04 09:59:36;;;;;;;7.62;5.43;;;28.90;57.90;;;;;;4331730;32;20084;-72
2021/08/04 10:02:03;;;;;;;9.77;5.15;;;28.90;56.60;;;;;;4341637;32;20129;-75
2021/08/04 10:04:29;;;;;;;10.57;5.47;;;28.90;56.90;;;;;;4332079;32;20520;-76
2021/08/04 10:07:09;;;;;;;8.75;5.57;;;28.90;54.60;;;;;;4322846;32;20098;-73
2021/08/04 10:09:36;;;;;;;6.53;4.90;;;28.80;54.50;;;;;;4338593;32;20151;-74
2021/08/04 10:12:04;;;;;;;6.75;4.95;;;28.80;54.00;;;;;;4337476;32;20553;-73
2021/08/04 10:14:30;;;;;;;9.80;5.50;;;28.70;53.40;;;;;;4336089;32;20160;-73
2021/08/04 10:16:56;;;;;;;12.95;5.60;;;29.00;53.20;;;;;;4327592;32;20067;-74
2021/08/04 10:19:25;;;;;;;6.25;3.83;;;29.10;53.00;;;;;;4343761;32;20108;-71
2021/08/04 10:21:52;;;;;;;8.48;5.12;;;29.50;52.00;;;;;;4336463;32;20085;-72
2021/08/04 10:24:19;;;;;;;7.68;5.43;;;29.70;50.50;;;;;;4341327;32;20090;-71
2021/08/04 10:26:45;;;;;;;7.37;6.07;;;29.40;51.30;;;;;;4350843;32;20173;-72
2021/08/04 10:29:11;;;;;;;7.85;5.18;;;29.50;51.20;;;;;;4351447;32;20073;-74
2021/08/04 10:31:40;;;;;;;11.77;5.57;;;29.20;50.70;;;;;;4349452;32;20089;-74
2021/08/04 10:34:06;;;;;;;9.35;6.43;;;29.30;50.90;;;;;;4344633;32;20605;-76
2021/08/04 10:36:38;;;;;;;7.82;5.55;;;29.20;50.00;;;;;;4349519;32;20159;-80
2021/08/04 10:39:08;;;;;;;5.55;3.67;;;28.90;51.60;;;;;;4349000;32;20062;-75
2021/08/04 10:41:35;;;;;;;10.32;4.93;;;28.90;52.50;;;;;;4351045;32;20078;-73
2021/08/04 10:44:06;;;;;;;5.18;3.67;;;29.00;51.20;;;;;;4350121;32;20094;-74
2021/08/04 10:46:32;;;;;;;7.62;4.70;;;29.10;49.00;;;;;;4358585;32;20068;-76
2021/08/04 10:49:09;;;;;;;6.18;4.70;;;29.70;47.50;;;;;;4340279;32;20089;-76
2021/08/04 10:52:03;;;;;;;6.30;4.25;;;29.90;46.70;;;;;;4342084;32;20098;-77
2021/08/04 10:54:30;;;;;;;6.45;5.18;;;29.70;47.10;;;;;;4359026;32;20059;-76
2021/08/04 10:56:57;;;;;;;7.25;4.62;;;30.00;45.90;;;;;;4322317;32;20093;-77
2021/08/04 10:59:27;;;;;;;6.45;5.30;;;29.60;45.10;;;;;;4359095;32;20074;-75
2021/08/04 11:02:03;;;;;;;7.62;5.20;;;29.10;46.50;;;;;;4336972;32;20419;-75
2021/08/04 11:04:30;;;;;;;8.77;5.10;;;29.10;45.10;;;;;;4338232;32;20516;-76
2021/08/04 11:07:08;;;;;;;9.68;5.18;;;29.30;45.30;;;;;;4362481;32;20059;-77
2021/08/04 11:09:36;;;;;;;7.25;4.50;;;29.50;44.10;;;;;;4376337;32;20074;-75
2021/08/04 11:12:06;;;;;;;9.20;4.93;;;29.80;43.30;;;;;;4362809;32;20486;-76
2021/08/04 11:14:53;;;;;;;10.60;5.28;;;29.60;44.20;;;;;;4339129;32;20081;-77
2021/08/04 11:17:24;;;;;;;6.65;3.72;;;29.60;45.00;;;;;;4352194;32;20082;-77
2021/08/04 11:20:09;;;;;;;7.37;4.40;;;29.40;45.40;;;;;;4351151;32;20453;-77
2021/08/04 11:22:46;;;;;;;6.87;4.97;;;29.90;43.90;;;;;;4363476;32;20073;-77
2021/08/04 11:25:41;;;;;;;8.48;3.45;;;29.20;45.60;;;;;;4375216;32;20144;-76
2021/08/04 11:28:11;;;;;;;7.37;4.65;;;29.40;45.80;;;;;;4327092;32;20074;-77
2021/08/04 11:30:48;;;;;;;6.65;4.78;;;29.30;46.60;;;;;;4357524;32;20247;-79
2021/08/04 11:33:27;;;;;;;7.12;4.80;;;29.20;46.00;;;;;;4350858;32;20084;-75
2021/08/04 11:36:04;;;;;;;6.80;4.40;;;29.40;46.50;;;;;;4377241;32;20137;-76
2021/08/04 11:38:44;;;;;;;7.78;5.25;;;29.70;45.40;;;;;;4349030;32;20194;-72
2021/08/04 11:41:25;;;;;;;8.85;4.85;;;29.20;47.70;;;;;;4357188;32;20504;-73
2021/08/04 11:44:00;;;;;;;8.60;5.32;;;29.40;48.70;;;;;;4347896;32;20106;-72
2021/08/04 11:46:42;;;;;;;6.47;4.43;;;29.30;49.80;;;;;;4337607;32;20087;-72
2021/08/04 11:49:33;;;;;;;9.48;4.87;;;29.70;48.30;;;;;;4325193;32;20063;-72
2021/08/04 11:52:11;;;;;;;9.45;5.62;;;29.70;48.50;;;;;;4347669;32;20094;-73
2021/08/04 11:54:42;;;;;;;6.35;5.20;;;29.80;49.80;;;;;;4336007;32;20073;-70
2021/08/04 11:57:24;;;;;;;9.40;5.28;;;29.40;50.70;;;;;;4360908;32;20077;-71
2021/08/04 11:59:58;;;;;;;6.75;4.97;;;29.40;51.60;;;;;;4361999;32;20113;-74
2021/08/04 12:02:26;;;;;;;7.30;5.60;;;29.50;52.00;;;;;;4358675;32;20102;-71
2021/08/04 12:04:54;;;;;;;7.72;4.78;;;29.30;52.10;;;;;;4337061;32;20171;-73
2021/08/04 12:07:29;;;;;;;6.93;6.12;;;29.30;52.60;;;;;;4335192;32;20074;-74
2021/08/04 12:10:02;;;;;;;7.95;6.10;;;29.10;52.90;;;;;;4350153;32;20092;-74
2021/08/04 12:12:36;;;;;;;6.07;4.40;;;29.30;51.80;;;;;;4362090;32;20449;-72
2021/08/04 12:15:06;;;;;;;8.43;6.30;;;29.30;52.10;;;;;;4327416;32;20094;-74
2021/08/04 12:17:35;;;;;;;6.95;5.32;;;29.20;51.60;;;;;;4331459;32;20171;-74
2021/08/04 12:20:14;;;;;;;7.70;5.78;;;29.30;51.10;;;;;;4343265;32;20536;-72
2021/08/04 12:22:42;;;;;;;6.97;5.80;;;29.00;51.10;;;;;;4347124;32;20055;-71
2021/08/04 12:25:09;;;;;;;10.15;6.78;;;29.00;51.40;;;;;;4339088;32;20071;-77
2021/08/04 12:27:44;;;;;;;7.37;3.80;;;29.30;50.20;;;;;;4322499;32;20076;-74
2021/08/04 12:30:36;;;;;;;3.55;2.72;;;29.40;50.70;;;;;;4345286;32;20078;-74
2021/08/04 12:33:13;;;;;;;7.62;5.57;;;29.50;50.30;;;;;;4349934;32;20090;-72
2021/08/04 12:36:09;;;;;;;6.35;4.82;;;29.50;50.80;;;;;;4348652;32;20163;-74
2021/08/04 12:38:41;;;;;;;7.78;5.93;;;29.60;51.00;;;;;;4342730;32;20179;-74
2021/08/04 12:41:11;;;;;;;8.65;6.80;;;29.70;50.20;;;;;;4349056;32;20502;-75
2021/08/04 12:43:40;;;;;;;8.95;6.20;;;29.80;49.00;;;;;;4326006;32;20070;-76
2021/08/04 12:46:09;;;;;;;7.22;6.00;;;29.80;49.30;;;;;;4342889;32;20098;-72
2021/08/04 12:48:46;;;;;;;4.68;3.37;;;30.20;48.50;;;;;;4356174;32;20513;-75
2021/08/04 12:51:17;;;;;;;7.95;6.37;;;29.80;47.70;;;;;;4352662;32;20079;-73
2021/08/04 12:53:46;;;;;;;9.13;6.35;;;29.40;49.20;;;;;;4349221;32;20151;-77
2021/08/04 12:56:13;;;;;;;9.45;6.03;;;29.10;50.00;;;;;;4357494;32;20109;-77